Delight, Arkansas
Current Conditions -  °F | °C
As of 3:56 PM on Monday 22 Dec 2014 (Local Time) from KADF Reporting Station
Scattered Clouds Scattered Clouds  
Wind Chill: 59°   Ceiling: Unl
Heat Index: 59°   Visibility: 8mi
Dew Point: 58°   Wind: 5mph
Humidity: 96%   Direction: 190°S
Pressure: 29.58"   Gusts: NA
Location:  34.03°N, 93.5°W
Report Text: KADF 222156Z AUTO 19004KT 8SM FEW018 SCT035 SCT055 15/14 A2958 RMK AO2 T01500144 SLP030
Loading
Personal Weather Stations






























Interactive Weather Map New forecast layout! Learn more

10-Day Weather Forecast

Advertisements
Track Severe Weather on mobile